createdAt,value
2022-12-13T00:00:44.853Z,25.48
2022-12-13T00:03:11.252Z,27.73
2022-12-13T00:05:43.499Z,31.83
2022-12-13T00:08:10.133Z,29.77
2022-12-13T00:10:36.585Z,28.63
2022-12-13T00:13:04.444Z,29.67
2022-12-13T00:15:31.189Z,23.85
2022-12-13T00:17:57.535Z,30.67
2022-12-13T00:20:23.915Z,26.52
2022-12-13T00:22:51.831Z,27.07
2022-12-13T00:25:20.407Z,28.88
2022-12-13T00:27:47.098Z,26.73
2022-12-13T00:30:13.528Z,27.23
2022-12-13T00:32:39.903Z,25.00
2022-12-13T00:35:06.557Z,26.83
2022-12-13T00:37:32.944Z,27.23
2022-12-13T00:39:59.296Z,26.47
2022-12-13T00:42:25.673Z,27.33
2022-12-13T00:44:52.034Z,26.20
2022-12-13T00:47:20.787Z,32.40
2022-12-13T00:49:47.124Z,29.70
2022-12-13T00:52:13.509Z,27.50
2022-12-13T00:54:39.938Z,29.20
2022-12-13T00:57:06.343Z,29.10
2022-12-13T00:59:32.749Z,26.80
2022-12-13T01:01:59.121Z,30.07
2022-12-13T01:04:27.025Z,26.60
2022-12-13T01:06:54.482Z,30.33
2022-12-13T01:09:25.460Z,26.87
2022-12-13T01:11:56.317Z,30.02
2022-12-13T01:14:22.688Z,28.03
2022-12-13T01:16:49.171Z,30.83
2022-12-13T01:19:15.632Z,30.80
2022-12-13T01:21:42.068Z,26.30
2022-12-13T01:24:08.707Z,28.00
2022-12-13T01:26:35.044Z,31.33
2022-12-13T01:29:01.664Z,28.40
2022-12-13T01:31:28.258Z,27.83
2022-12-13T01:33:54.578Z,28.80
2022-12-13T01:36:27.949Z,27.67
2022-12-13T01:38:58.464Z,27.03
2022-12-13T01:41:27.292Z,27.77
2022-12-13T01:43:56.688Z,26.57
2022-12-13T01:46:23.677Z,27.33
2022-12-13T01:49:20.100Z,27.43
2022-12-13T01:51:54.338Z,27.40
2022-12-13T01:54:33.614Z,29.27
2022-12-13T01:57:04.703Z,26.63
2022-12-13T01:59:32.010Z,32.33
2022-12-13T02:02:00.924Z,28.67
2022-12-13T02:04:43.954Z,31.30
2022-12-13T02:07:22.504Z,26.67
2022-12-13T02:09:56.361Z,30.70
2022-12-13T02:12:29.808Z,29.67
2022-12-13T02:15:02.594Z,27.73
2022-12-13T02:18:07.424Z,29.07
2022-12-13T02:20:46.022Z,24.75
2022-12-13T02:23:27.619Z,31.33
2022-12-13T02:26:03.001Z,29.50
2022-12-13T02:29:30.888Z,28.03
2022-12-13T02:32:29.972Z,29.10
2022-12-13T02:35:07.317Z,31.40
2022-12-13T02:37:55.427Z,35.13
2022-12-13T02:40:33.365Z,26.90
2022-12-13T02:43:16.715Z,28.97
2022-12-13T02:45:58.291Z,27.20
2022-12-13T02:48:34.892Z,32.97
2022-12-13T02:51:04.726Z,25.33
2022-12-13T02:53:33.847Z,31.10
2022-12-13T02:56:00.493Z,34.17
2022-12-13T02:58:31.971Z,26.73
2022-12-13T03:00:58.499Z,30.40
2022-12-13T03:03:49.189Z,26.50
2022-12-13T03:06:49.581Z,33.27
2022-12-13T03:09:37.675Z,29.60
2022-12-13T03:12:41.154Z,27.87
2022-12-13T03:15:43.370Z,34.17
2022-12-13T03:18:18.352Z,29.73
2022-12-13T03:20:48.194Z,26.65
2022-12-13T03:23:16.096Z,31.17
2022-12-13T03:25:44.137Z,30.43
2022-12-13T03:28:10.750Z,28.37
2022-12-13T03:30:37.189Z,32.00
2022-12-13T03:33:03.797Z,30.27
2022-12-13T03:35:33.976Z,28.20
2022-12-13T03:38:01.941Z,31.60
2022-12-13T03:40:30.030Z,33.67
2022-12-13T03:42:56.608Z,33.33
2022-12-13T03:45:23.070Z,31.60
2022-12-13T03:47:49.447Z,32.13
2022-12-13T03:50:26.684Z,30.37
2022-12-13T03:53:01.764Z,32.40
2022-12-13T03:55:28.503Z,30.75
2022-12-13T03:57:54.974Z,32.17
2022-12-13T04:00:21.594Z,30.80
2022-12-13T04:02:48.132Z,33.27
2022-12-13T04:05:14.962Z,30.33
2022-12-13T04:07:48.580Z,30.88
2022-12-13T04:10:26.201Z,28.40
2022-12-13T04:13:12.916Z,32.87
2022-12-13T04:15:39.609Z,29.23
2022-12-13T04:18:06.495Z,32.93
2022-12-13T04:20:32.883Z,30.83
2022-12-13T04:22:59.246Z,31.47
2022-12-13T04:25:25.770Z,32.20
2022-12-13T04:27:52.092Z,31.30
2022-12-13T04:30:18.466Z,28.30
2022-12-13T04:32:44.994Z,30.63
2022-12-13T04:35:11.379Z,32.23
2022-12-13T04:37:37.814Z,32.33
2022-12-13T04:40:04.724Z,30.97
2022-12-13T04:42:31.570Z,32.47
2022-12-13T04:44:58.054Z,31.20
2022-12-13T04:47:24.417Z,33.57
2022-12-13T04:49:50.822Z,31.57
2022-12-13T04:52:22.201Z,29.60
2022-12-13T04:54:55.577Z,34.50
2022-12-13T04:57:23.287Z,33.23
2022-12-13T04:59:49.791Z,28.67
2022-12-13T05:02:23.439Z,35.53
2022-12-13T05:04:54.411Z,32.28
2022-12-13T05:07:21.737Z,29.17
2022-12-13T05:09:48.165Z,29.60
2022-12-13T05:12:22.089Z,28.80
2022-12-13T05:17:16.728Z,31.63
2022-12-13T05:19:43.131Z,27.37
2022-12-13T05:22:19.678Z,29.77
2022-12-13T05:24:47.094Z,36.00
2022-12-13T05:27:25.356Z,29.47
2022-12-13T05:30:03.788Z,27.33
2022-12-13T05:32:43.142Z,35.00
2022-12-13T05:35:12.641Z,31.33
2022-12-13T05:37:39.237Z,34.40
2022-12-13T05:40:06.484Z,32.37
2022-12-13T05:42:33.040Z,30.73
2022-12-13T05:44:59.603Z,37.97
2022-12-13T05:47:25.933Z,32.70
2022-12-13T05:49:52.354Z,35.83
2022-12-13T05:52:20.590Z,29.30
2022-12-13T05:54:47.444Z,31.57
2022-12-13T05:57:14.262Z,29.07
2022-12-13T05:59:40.740Z,28.98
2022-12-13T06:02:07.286Z,29.30
2022-12-13T06:04:33.713Z,30.47
2022-12-13T06:07:00.230Z,32.00
2022-12-13T06:09:26.632Z,30.07
2022-12-13T06:12:01.035Z,28.90
2022-12-13T06:14:28.238Z,28.17
2022-12-13T06:16:54.720Z,33.80
2022-12-13T06:19:22.192Z,30.93
2022-12-13T06:21:50.161Z,31.57
2022-12-13T06:24:18.877Z,32.97
2022-12-13T06:26:45.618Z,29.00
2022-12-13T06:29:23.884Z,33.47
2022-12-13T06:32:01.878Z,30.17
2022-12-13T06:34:34.557Z,32.43
2022-12-13T06:37:04.714Z,36.80
2022-12-13T06:39:32.214Z,33.37
2022-12-13T06:42:07.457Z,33.57
2022-12-13T06:44:34.926Z,34.40
2022-12-13T06:47:11.755Z,37.97
2022-12-13T06:49:40.428Z,31.83
2022-12-13T06:52:09.875Z,36.27
2022-12-13T06:54:36.249Z,37.70
2022-12-13T06:57:02.605Z,37.40
2022-12-13T06:59:29.037Z,37.03
2022-12-13T07:01:55.473Z,33.93
2022-12-13T07:04:31.182Z,33.22
2022-12-13T07:07:01.061Z,36.07
2022-12-13T07:09:30.672Z,32.27
2022-12-13T07:11:57.183Z,35.03
2022-12-13T07:14:23.570Z,38.27
2022-12-13T07:16:50.059Z,42.07
2022-12-13T07:19:23.803Z,41.93
2022-12-13T07:21:51.028Z,35.85
2022-12-13T07:24:17.411Z,43.20
2022-12-13T07:26:43.949Z,40.93
2022-12-13T07:29:10.315Z,36.60
2022-12-13T07:31:37.528Z,38.07
2022-12-13T07:34:04.135Z,38.30
2022-12-13T07:36:30.548Z,38.47
2022-12-13T07:38:57.587Z,34.80
2022-12-13T07:41:25.495Z,33.20
2022-12-13T07:43:55.600Z,32.53
2022-12-13T07:46:33.400Z,40.60
2022-12-13T07:49:05.050Z,38.43
2022-12-13T07:51:34.083Z,38.27
2022-12-13T07:54:00.696Z,36.80
2022-12-13T07:56:27.143Z,37.33
2022-12-13T07:58:53.531Z,42.27
2022-12-13T08:01:19.933Z,38.13
2022-12-13T08:03:48.596Z,32.97
2022-12-13T08:06:15.184Z,32.63
2022-12-13T08:08:41.605Z,37.77
2022-12-13T08:11:10.590Z,35.33
2022-12-13T08:13:38.554Z,39.77
2022-12-13T08:16:28.354Z,37.40
2022-12-13T08:19:01.825Z,37.17
2022-12-13T08:22:01.676Z,34.20
2022-12-13T08:24:20.236Z,33.43
2022-12-13T08:26:46.657Z,32.10
2022-12-13T08:29:13.175Z,33.00
2022-12-13T08:31:49.182Z,30.47
2022-12-13T08:34:15.533Z,32.87
2022-12-13T08:36:41.931Z,29.37
2022-12-13T08:39:09.063Z,30.77
2022-12-13T08:41:39.066Z,27.50
2022-12-13T08:44:06.279Z,32.00
2022-12-13T08:46:32.833Z,31.33
2022-12-13T08:48:59.367Z,30.43
2022-12-13T08:51:32.235Z,32.07
2022-12-13T08:54:10.492Z,28.73
2022-12-13T08:56:38.317Z,27.87
2022-12-13T08:59:04.859Z,28.67
2022-12-13T09:01:31.213Z,28.93
2022-12-13T09:03:57.599Z,26.67
2022-12-13T09:06:24.005Z,30.70
2022-12-13T09:08:53.307Z,27.55
2022-12-13T09:11:20.753Z,30.23
2022-12-13T09:13:50.531Z,28.35
2022-12-13T09:16:24.503Z,30.70
2022-12-13T09:18:55.404Z,29.98
2022-12-13T09:21:31.104Z,26.20
2022-12-13T09:24:02.040Z,26.87
2022-12-13T09:26:29.056Z,27.90
2022-12-13T09:29:10.641Z,25.83
2022-12-13T09:31:40.255Z,25.45
2022-12-13T09:34:07.054Z,26.17
2022-12-13T09:36:33.765Z,26.20
2022-12-13T09:39:00.160Z,26.85
2022-12-13T09:41:41.220Z,28.98
2022-12-13T09:44:31.091Z,26.05
2022-12-13T09:47:03.463Z,27.38
2022-12-13T09:49:35.873Z,24.58
2022-12-13T09:52:10.619Z,27.15
2022-12-13T09:54:47.784Z,23.00
2022-12-13T09:57:30.977Z,24.65
2022-12-13T10:00:01.955Z,25.05
2022-12-13T10:02:31.802Z,25.25
2022-12-13T10:05:22.236Z,24.95
2022-12-13T10:07:53.021Z,23.40
2022-12-13T10:10:19.755Z,24.70
2022-12-13T10:12:52.328Z,23.77
2022-12-13T10:15:22.129Z,22.27
2022-12-13T10:17:54.924Z,23.90
2022-12-13T10:20:26.056Z,23.52
2022-12-13T10:23:30.162Z,21.80
2022-12-13T10:26:02.753Z,27.35
2022-12-13T10:28:33.150Z,20.98
2022-12-13T10:31:01.455Z,26.08
2022-12-13T10:33:31.694Z,21.27
2022-12-13T10:36:08.781Z,19.38
2022-12-13T10:38:46.301Z,22.92
2022-12-13T10:41:37.418Z,21.00
2022-12-13T10:44:16.190Z,20.05
2022-12-13T10:46:52.939Z,19.23
2022-12-13T10:49:25.771Z,19.50
2022-12-13T10:51:54.212Z,17.92
2022-12-13T10:54:28.261Z,20.70
2022-12-13T10:57:00.212Z,19.75
2022-12-13T10:59:37.921Z,20.00
2022-12-13T11:02:31.542Z,21.33
2022-12-13T11:04:59.988Z,20.23
2022-12-13T11:07:33.432Z,19.15
2022-12-13T11:10:27.438Z,18.63
2022-12-13T11:13:01.756Z,17.40
2022-12-13T11:15:30.912Z,19.38
2022-12-13T11:18:03.216Z,17.58
2022-12-13T11:20:54.373Z,17.90
2022-12-13T11:23:46.738Z,18.65
2022-12-13T11:26:24.440Z,15.60
2022-12-13T11:29:25.653Z,16.13
2022-12-13T11:32:04.143Z,17.52
2022-12-13T11:34:50.742Z,15.75
2022-12-13T11:37:24.687Z,18.55
2022-12-13T11:40:20.917Z,15.47
2022-12-13T11:42:54.103Z,15.77
2022-12-13T11:45:25.557Z,15.45
2022-12-13T11:48:03.865Z,16.50
2022-12-13T11:50:38.747Z,16.80
2022-12-13T11:56:02.793Z,15.02
2022-12-13T12:01:39.519Z,18.38
2022-12-13T12:04:21.507Z,17.90
2022-12-13T12:07:30.563Z,16.38
2022-12-13T12:10:28.114Z,15.23
2022-12-13T12:13:22.712Z,15.05
2022-12-13T12:15:55.057Z,16.73
2022-12-13T12:18:21.913Z,14.35
2022-12-13T12:21:21.639Z,14.25
2022-12-13T12:24:09.116Z,15.00
2022-12-13T12:26:55.300Z,15.57
2022-12-13T12:29:50.589Z,14.00
2022-12-13T12:32:25.881Z,14.93
2022-12-13T12:35:15.176Z,13.85
2022-12-13T12:37:54.245Z,12.93
2022-12-13T12:41:15.150Z,13.25
2022-12-13T12:43:38.159Z,13.68
2022-12-13T12:46:15.992Z,16.13
2022-12-13T12:49:03.202Z,15.57
2022-12-13T12:51:54.597Z,14.13
2022-12-13T12:54:50.923Z,14.98
2022-12-13T12:57:39.443Z,12.93
2022-12-13T13:00:14.674Z,15.48
2022-12-13T13:03:01.695Z,16.67
2022-12-13T13:05:55.834Z,15.02
2022-12-13T13:08:34.179Z,14.07
2022-12-13T13:11:03.440Z,16.45
2022-12-13T13:13:46.627Z,13.68
2022-12-13T13:16:41.640Z,14.07
2022-12-13T13:19:10.787Z,19.02
2022-12-13T13:21:50.363Z,16.58
2022-12-13T13:24:24.324Z,14.43
2022-12-13T13:27:09.941Z,15.48
2022-12-13T13:29:44.058Z,16.17
2022-12-13T13:32:28.534Z,17.58
2022-12-13T13:35:36.949Z,16.83
2022-12-13T13:38:24.633Z,15.88
2022-12-13T13:40:51.415Z,18.10
2022-12-13T13:43:32.256Z,17.73
2022-12-13T13:46:08.066Z,13.75
2022-12-13T13:48:50.499Z,14.90
2022-12-13T13:52:16.763Z,15.85
2022-12-13T13:54:52.466Z,15.23
2022-12-13T13:58:08.791Z,14.63
2022-12-13T14:00:41.519Z,14.10
2022-12-13T14:03:44.288Z,15.23
2022-12-13T14:06:48.250Z,15.60
2022-12-13T14:09:23.510Z,15.93
2022-12-13T14:14:53.668Z,14.77
2022-12-13T14:17:36.845Z,15.05
2022-12-13T14:20:29.783Z,16.83
2022-12-13T14:23:14.003Z,13.50
2022-12-13T14:26:02.350Z,14.93
2022-12-13T14:28:51.738Z,18.15
2022-12-13T14:31:23.294Z,14.73
2022-12-13T14:33:53.140Z,17.60
2022-12-13T14:36:28.172Z,19.17
2022-12-13T14:39:24.435Z,17.38
2022-12-13T14:41:57.193Z,17.60
2022-12-13T14:44:25.871Z,19.50
2022-12-13T14:46:58.954Z,16.23
2022-12-13T14:49:28.048Z,16.17
2022-12-13T14:52:07.391Z,17.60
2022-12-13T14:54:50.621Z,16.10
2022-12-13T14:57:27.048Z,16.30
2022-12-13T14:59:55.687Z,15.10
2022-12-13T15:02:30.856Z,16.17
2022-12-13T15:05:00.857Z,14.30
2022-12-13T15:07:30.387Z,15.82
2022-12-13T15:10:08.352Z,17.90
2022-12-13T15:12:34.711Z,17.58
2022-12-13T15:15:08.598Z,21.15
2022-12-13T15:17:37.818Z,17.25
2022-12-13T15:20:22.798Z,15.88
2022-12-13T15:23:04.342Z,15.40
2022-12-13T15:25:33.876Z,18.17
2022-12-13T15:28:00.492Z,17.73
2022-12-13T15:30:31.693Z,17.02
2022-12-13T15:33:16.919Z,18.30
2022-12-13T15:35:48.094Z,17.85
2022-12-13T15:38:29.033Z,20.00
2022-12-13T15:40:56.223Z,16.60
2022-12-13T15:43:30.797Z,18.50
2022-12-13T15:45:57.301Z,16.67
2022-12-13T15:48:30.638Z,15.25
2022-12-13T15:51:29.482Z,15.18
2022-12-13T15:54:03.233Z,16.45
2022-12-13T15:56:37.465Z,16.83
2022-12-13T15:59:06.109Z,18.67
2022-12-13T16:01:35.194Z,18.52
2022-12-13T16:04:04.758Z,18.48
2022-12-13T16:06:32.930Z,14.88
2022-12-13T16:09:02.491Z,18.88
2022-12-13T16:11:33.652Z,15.32
2022-12-13T16:14:40.938Z,19.15
2022-12-13T16:17:24.936Z,15.27
2022-12-13T16:22:21.648Z,18.75
2022-12-13T16:24:48.826Z,14.40
2022-12-13T16:27:15.446Z,14.95
2022-12-13T16:29:41.792Z,19.00
2022-12-13T16:32:09.146Z,21.67
2022-12-13T16:34:36.977Z,15.90
2022-12-13T16:37:08.372Z,16.50
2022-12-13T16:39:35.374Z,17.60
2022-12-13T16:42:02.097Z,18.27
2022-12-13T16:44:33.886Z,18.88
2022-12-13T16:47:12.340Z,14.18
2022-12-13T16:49:45.221Z,18.50
2022-12-13T16:52:11.628Z,17.45
2022-12-13T16:54:37.965Z,17.02
2022-12-13T16:57:04.301Z,13.50
2022-12-13T16:59:30.699Z,17.00
2022-12-13T17:01:57.165Z,18.17
2022-12-13T17:04:24.582Z,18.60
2022-12-13T17:06:54.978Z,15.90
2022-12-13T17:09:22.374Z,18.45
2022-12-13T17:11:48.997Z,17.27
2022-12-13T17:14:15.483Z,20.27
2022-12-13T17:16:41.987Z,15.50
2022-12-13T17:19:11.373Z,16.45
2022-12-13T17:21:37.792Z,19.58
2022-12-13T17:24:04.519Z,14.77
2022-12-13T17:26:30.896Z,18.55
2022-12-13T17:28:57.291Z,15.20
2022-12-13T17:31:23.894Z,13.75
2022-12-13T17:33:50.366Z,15.27
2022-12-13T17:36:17.381Z,14.90
2022-12-13T17:38:48.297Z,15.95
2022-12-13T17:41:15.933Z,15.52
2022-12-13T17:43:43.225Z,17.00
2022-12-13T17:46:15.714Z,15.63
2022-12-13T17:48:42.699Z,16.88
2022-12-13T17:51:11.171Z,14.07
2022-12-13T17:53:42.263Z,13.80
2022-12-13T17:56:12.131Z,13.35
2022-12-13T17:58:39.280Z,18.80
2022-12-13T18:01:25.768Z,16.88
2022-12-13T18:03:55.511Z,16.92
2022-12-13T18:06:22.609Z,13.13
2022-12-13T18:08:49.040Z,17.23
2022-12-13T18:11:34.297Z,11.75
2022-12-13T18:14:02.710Z,11.85
2022-12-13T18:16:36.448Z,14.88
2022-12-13T18:19:06.407Z,12.38
2022-12-13T18:21:33.442Z,12.85
2022-12-13T18:24:00.014Z,11.52
2022-12-13T18:26:26.590Z,12.82
2022-12-13T18:28:53.074Z,12.88
2022-12-13T18:31:24.314Z,14.25
2022-12-13T18:33:52.383Z,13.20
2022-12-13T18:36:20.016Z,14.15
2022-12-13T18:38:46.630Z,13.18
2022-12-13T18:41:15.445Z,15.00
2022-12-13T18:43:45.644Z,16.70
2022-12-13T18:46:13.625Z,13.88
2022-12-13T18:48:41.112Z,15.82
2022-12-13T18:51:09.721Z,13.23
2022-12-13T18:53:37.917Z,14.15
2022-12-13T18:56:17.854Z,14.48
2022-12-13T18:58:45.858Z,12.60
2022-12-13T19:01:13.121Z,14.50
2022-12-13T19:03:40.324Z,14.05
2022-12-13T19:06:07.488Z,12.73
2022-12-13T19:08:34.378Z,14.02
2022-12-13T19:11:02.061Z,10.90
2022-12-13T19:13:29.357Z,14.93
2022-12-13T19:15:58.222Z,13.95
2022-12-13T19:18:24.987Z,14.65
2022-12-13T19:20:53.640Z,13.55
2022-12-13T19:23:20.421Z,14.05
2022-12-13T19:25:48.600Z,16.77
2022-12-13T19:28:17.537Z,16.02
2022-12-13T19:30:47.872Z,13.38
2022-12-13T19:33:15.250Z,13.48
2022-12-13T19:35:43.096Z,12.95
2022-12-13T19:38:09.744Z,12.07
2022-12-13T19:40:39.691Z,14.45
2022-12-13T19:43:06.378Z,12.23
2022-12-13T19:45:32.857Z,14.82
2022-12-13T19:47:59.504Z,11.80
2022-12-13T19:50:25.878Z,13.77
2022-12-13T19:52:52.258Z,12.00
2022-12-13T19:55:18.668Z,10.93
2022-12-13T19:57:45.072Z,14.18
2022-12-13T20:00:12.199Z,13.13
2022-12-13T20:02:38.823Z,14.48
2022-12-13T20:05:05.805Z,11.52
2022-12-13T20:07:32.201Z,11.27
2022-12-13T20:09:58.658Z,10.50
2022-12-13T20:12:25.330Z,11.82
2022-12-13T20:14:51.779Z,12.48
2022-12-13T20:17:18.279Z,11.90
2022-12-13T20:19:44.604Z,12.43
2022-12-13T20:22:11.132Z,9.93
2022-12-13T20:24:37.719Z,11.55
2022-12-13T20:27:04.275Z,15.70
2022-12-13T20:29:30.913Z,11.82
2022-12-13T20:31:57.469Z,12.65
2022-12-13T20:34:24.030Z,11.82
2022-12-13T20:36:50.431Z,10.73
2022-12-13T20:39:17.101Z,10.77
2022-12-13T20:41:43.576Z,11.32
2022-12-13T20:44:12.299Z,10.35
2022-12-13T20:46:39.300Z,12.55
2022-12-13T20:49:08.816Z,10.00
2022-12-13T20:51:37.633Z,12.00
2022-12-13T20:54:04.924Z,12.35
2022-12-13T20:56:35.167Z,14.25
2022-12-13T20:59:03.548Z,12.95
2022-12-13T21:01:32.409Z,11.10
2022-12-13T21:04:00.888Z,10.77
2022-12-13T21:06:28.971Z,10.80
2022-12-13T21:08:57.413Z,10.90
2022-12-13T21:11:30.136Z,11.43
2022-12-13T21:14:23.133Z,12.48
2022-12-13T21:16:58.406Z,10.63
2022-12-13T21:19:26.119Z,14.90
2022-12-13T21:21:54.120Z,11.13
2022-12-13T21:24:22.136Z,9.50
2022-12-13T21:26:48.942Z,11.60
2022-12-13T21:29:16.227Z,11.45
2022-12-13T21:31:48.788Z,14.10
2022-12-13T21:34:16.828Z,9.75
2022-12-13T21:36:44.965Z,12.43
2022-12-13T21:39:14.118Z,11.32
2022-12-13T21:41:41.520Z,9.30
2022-12-13T21:44:14.008Z,9.05
2022-12-13T21:47:10.699Z,10.88
2022-12-13T21:49:27.217Z,9.10
2022-12-13T21:51:53.546Z,10.75
2022-12-13T21:54:19.940Z,9.43
2022-12-13T21:57:04.852Z,9.15
2022-12-13T21:59:31.864Z,10.60
2022-12-13T22:02:11.999Z,11.00
2022-12-13T22:04:43.521Z,8.65
2022-12-13T22:07:15.906Z,8.98
2022-12-13T22:09:42.418Z,10.98
2022-12-13T22:12:16.825Z,11.85
2022-12-13T22:14:43.207Z,9.75
2022-12-13T22:17:09.534Z,9.35
2022-12-13T22:19:35.919Z,8.88
2022-12-13T22:22:02.363Z,9.20
2022-12-13T22:24:28.783Z,7.90
2022-12-13T22:26:55.136Z,10.32
2022-12-13T22:29:21.834Z,9.80
2022-12-13T22:31:49.118Z,11.65
2022-12-13T22:34:16.059Z,11.75
2022-12-13T22:36:42.492Z,9.00
2022-12-13T22:39:16.401Z,10.18
2022-12-13T22:41:42.841Z,11.40
2022-12-13T22:44:11.481Z,9.90
2022-12-13T22:46:38.892Z,12.55
2022-12-13T22:49:05.559Z,12.63
2022-12-13T22:51:32.059Z,10.27
2022-12-13T22:53:58.380Z,12.05
2022-12-13T22:56:24.879Z,16.27
2022-12-13T22:58:55.760Z,10.75
2022-12-13T23:01:27.230Z,10.80
2022-12-13T23:03:54.659Z,12.10
2022-12-13T23:06:23.713Z,12.45
2022-12-13T23:08:56.062Z,12.13
2022-12-13T23:11:41.677Z,11.93
2022-12-13T23:16:36.410Z,12.80
2022-12-13T23:19:39.212Z,12.88
2022-12-13T23:21:51.229Z,9.35
2022-12-13T23:24:20.168Z,9.65
2022-12-13T23:26:46.817Z,10.20
2022-12-13T23:29:13.331Z,8.90
2022-12-13T23:31:42.427Z,8.75
2022-12-13T23:34:15.326Z,8.95
2022-12-13T23:36:41.693Z,13.15
2022-12-13T23:39:08.219Z,8.88
2022-12-13T23:41:35.398Z,7.72
2022-12-13T23:44:01.892Z,8.00
2022-12-13T23:46:33.758Z,7.70
2022-12-13T23:49:01.167Z,10.33
2022-12-13T23:51:28.345Z,11.38
2022-12-13T23:53:54.960Z,8.05
2022-12-13T23:56:22.035Z,8.20
2022-12-13T23:58:49.048Z,8.33
